sensor_id;sensor_type;location;lat;lon;timestamp;pressure;altitude;pressure_sealevel;temperature
81657;BMP280;71067;51.482;-0.580;2023-07-31T00:00:48;100763.78;;;18.12
81657;BMP280;71067;51.482;-0.580;2023-07-31T00:03:13;100759.13;;;18.14
81657;BMP280;71067;51.482;-0.580;2023-07-31T00:05:39;100762.56;;;18.14
81657;BMP280;71067;51.482;-0.580;2023-07-31T00:08:04;100760.53;;;18.10
81657;BMP280;71067;51.482;-0.580;2023-07-31T00:10:29;100771.97;;;18.15
81657;BMP280;71067;51.482;-0.580;2023-07-31T00:12:55;100757.06;;;18.16
81657;BMP280;71067;51.482;-0.580;2023-07-31T00:15:20;100763.94;;;18.17
81657;BMP280;71067;51.482;-0.580;2023-07-31T00:17:45;100757.88;;;18.16
81657;BMP280;71067;51.482;-0.580;2023-07-31T00:20:11;100741.59;;;18.14
81657;BMP280;71067;51.482;-0.580;2023-07-31T00:22:37;100751.00;;;18.22
81657;BMP280;71067;51.482;-0.580;2023-07-31T00:25:02;100742.50;;;18.20
81657;BMP280;71067;51.482;-0.580;2023-07-31T00:27:28;100748.38;;;18.22
81657;BMP280;71067;51.482;-0.580;2023-07-31T00:29:53;100748.16;;;18.23
81657;BMP280;71067;51.482;-0.580;2023-07-31T00:32:18;100742.91;;;18.23
81657;BMP280;71067;51.482;-0.580;2023-07-31T00:34:44;100740.69;;;18.27
81657;BMP280;71067;51.482;-0.580;2023-07-31T00:37:09;100730.38;;;18.25
81657;BMP280;71067;51.482;-0.580;2023-07-31T00:39:35;100717.91;;;18.27
81657;BMP280;71067;51.482;-0.580;2023-07-31T00:42:01;100726.34;;;18.29
81657;BMP280;71067;51.482;-0.580;2023-07-31T00:44:26;100717.69;;;18.29
81657;BMP280;71067;51.482;-0.580;2023-07-31T00:46:52;100707.59;;;18.26
81657;BMP280;71067;51.482;-0.580;2023-07-31T00:49:17;100705.34;;;18.29
81657;BMP280;71067;51.482;-0.580;2023-07-31T00:51:43;100689.06;;;18.27
81657;BMP280;71067;51.482;-0.580;2023-07-31T00:54:08;100679.16;;;18.29
81657;BMP280;71067;51.482;-0.580;2023-07-31T00:56:34;100680.13;;;18.35
81657;BMP280;71067;51.482;-0.580;2023-07-31T00:58:59;100675.88;;;18.34
81657;BMP280;71067;51.482;-0.580;2023-07-31T01:01:25;100674.66;;;18.36
81657;BMP280;71067;51.482;-0.580;2023-07-31T01:03:52;100671.84;;;18.38
81657;BMP280;71067;51.482;-0.580;2023-07-31T01:06:44;100669.84;;;18.33
81657;BMP280;71067;51.482;-0.580;2023-07-31T01:09:38;100670.22;;;18.37
81657;BMP280;71067;51.482;-0.580;2023-07-31T01:12:07;100662.19;;;18.32
81657;BMP280;71067;51.482;-0.580;2023-07-31T01:14:32;100667.16;;;18.40
81657;BMP280;71067;51.482;-0.580;2023-07-31T01:16:57;100669.78;;;18.40
81657;BMP280;71067;51.482;-0.580;2023-07-31T01:19:24;100660.88;;;18.41
81657;BMP280;71067;51.482;-0.580;2023-07-31T01:22:16;100654.41;;;18.43
81657;BMP280;71067;51.482;-0.580;2023-07-31T01:27:23;100639.28;;;18.45
81657;BMP280;71067;51.482;-0.580;2023-07-31T01:30:05;100633.81;;;18.47
81657;BMP280;71067;51.482;-0.580;2023-07-31T01:32:36;100624.78;;;18.43
81657;BMP280;71067;51.482;-0.580;2023-07-31T01:35:04;100627.78;;;18.46
81657;BMP280;71067;51.482;-0.580;2023-07-31T01:37:29;100621.91;;;18.51
81657;BMP280;71067;51.482;-0.580;2023-07-31T01:39:55;100602.34;;;18.47
81657;BMP280;71067;51.482;-0.580;2023-07-31T01:42:20;100605.13;;;18.52
81657;BMP280;71067;51.482;-0.580;2023-07-31T01:44:46;100607.75;;;18.52
81657;BMP280;71067;51.482;-0.580;2023-07-31T01:47:11;100621.63;;;18.52
81657;BMP280;71067;51.482;-0.580;2023-07-31T01:49:36;100604.72;;;18.48
81657;BMP280;71067;51.482;-0.580;2023-07-31T01:52:02;100609.34;;;18.53
81657;BMP280;71067;51.482;-0.580;2023-07-31T01:54:27;100604.69;;;18.55
81657;BMP280;71067;51.482;-0.580;2023-07-31T01:56:52;100592.00;;;18.52
81657;BMP280;71067;51.482;-0.580;2023-07-31T01:59:17;100591.31;;;18.56
81657;BMP280;71067;51.482;-0.580;2023-07-31T02:04:15;100600.25;;;18.55
81657;BMP280;71067;51.482;-0.580;2023-07-31T02:06:40;100598.19;;;18.57
81657;BMP280;71067;51.482;-0.580;2023-07-31T02:09:06;100578.81;;;18.58
81657;BMP280;71067;51.482;-0.580;2023-07-31T02:11:31;100584.84;;;18.59
81657;BMP280;71067;51.482;-0.580;2023-07-31T02:13:56;100565.91;;;18.57
81657;BMP280;71067;51.482;-0.580;2023-07-31T02:16:22;100580.41;;;18.59
81657;BMP280;71067;51.482;-0.580;2023-07-31T02:18:47;100579.78;;;18.64
81657;BMP280;71067;51.482;-0.580;2023-07-31T02:21:12;100568.81;;;18.67
81657;BMP280;71067;51.482;-0.580;2023-07-31T02:23:38;100559.25;;;18.61
81657;BMP280;71067;51.482;-0.580;2023-07-31T02:26:03;100566.19;;;18.67
81657;BMP280;71067;51.482;-0.580;2023-07-31T02:28:29;100560.94;;;18.67
81657;BMP280;71067;51.482;-0.580;2023-07-31T02:30:55;100566.00;;;18.69
81657;BMP280;71067;51.482;-0.580;2023-07-31T02:33:20;100559.94;;;18.68
81657;BMP280;71067;51.482;-0.580;2023-07-31T02:35:45;100556.06;;;18.71
81657;BMP280;71067;51.482;-0.580;2023-07-31T02:38:11;100554.25;;;18.71
81657;BMP280;71067;51.482;-0.580;2023-07-31T02:40:36;100540.78;;;18.68
81657;BMP280;71067;51.482;-0.580;2023-07-31T02:43:01;100537.00;;;18.64
81657;BMP280;71067;51.482;-0.580;2023-07-31T02:45:27;100531.22;;;18.73
81657;BMP280;71067;51.482;-0.580;2023-07-31T02:47:52;100523.44;;;18.67
81657;BMP280;71067;51.482;-0.580;2023-07-31T02:50:17;100535.47;;;18.74
81657;BMP280;71067;51.482;-0.580;2023-07-31T02:52:43;100527.59;;;18.74
81657;BMP280;71067;51.482;-0.580;2023-07-31T02:55:08;100535.03;;;18.77
81657;BMP280;71067;51.482;-0.580;2023-07-31T02:57:33;100527.16;;;18.77
81657;BMP280;71067;51.482;-0.580;2023-07-31T02:59:59;100537.66;;;18.77
81657;BMP280;71067;51.482;-0.580;2023-07-31T03:02:24;100530.56;;;18.78
81657;BMP280;71067;51.482;-0.580;2023-07-31T03:04:49;100526.94;;;18.79
81657;BMP280;71067;51.482;-0.580;2023-07-31T03:07:14;100525.91;;;18.80
81657;BMP280;71067;51.482;-0.580;2023-07-31T03:09:40;100529.91;;;18.82
81657;BMP280;71067;51.482;-0.580;2023-07-31T03:12:06;100519.47;;;18.76
81657;BMP280;71067;51.482;-0.580;2023-07-31T03:14:31;100518.94;;;18.85
81657;BMP280;71067;51.482;-0.580;2023-07-31T03:16:56;100522.38;;;18.86
81657;BMP280;71067;51.482;-0.580;2023-07-31T03:19:22;100521.44;;;18.80
81657;BMP280;71067;51.482;-0.580;2023-07-31T03:21:47;100522.38;;;18.86
81657;BMP280;71067;51.482;-0.580;2023-07-31T03:24:12;100528.66;;;18.85
81657;BMP280;71067;51.482;-0.580;2023-07-31T03:26:38;100525.81;;;18.86
81657;BMP280;71067;51.482;-0.580;2023-07-31T03:29:06;100517.13;;;18.86
81657;BMP280;71067;51.482;-0.580;2023-07-31T03:31:31;100510.66;;;18.88
81657;BMP280;71067;51.482;-0.580;2023-07-31T03:33:57;100507.00;;;18.89
81657;BMP280;71067;51.482;-0.580;2023-07-31T03:36:22;100497.09;;;18.91
81657;BMP280;71067;51.482;-0.580;2023-07-31T03:38:47;100490.81;;;18.92
81657;BMP280;71067;51.482;-0.580;2023-07-31T03:41:13;100485.59;;;18.92
81657;BMP280;71067;51.482;-0.580;2023-07-31T03:43:38;100473.47;;;18.91
81657;BMP280;71067;51.482;-0.580;2023-07-31T03:46:03;100488.53;;;18.96
81657;BMP280;71067;51.482;-0.580;2023-07-31T03:48:29;100489.13;;;18.98
81657;BMP280;71067;51.482;-0.580;2023-07-31T03:50:54;100483.09;;;18.97
81657;BMP280;71067;51.482;-0.580;2023-07-31T03:53:20;100480.19;;;18.99
81657;BMP280;71067;51.482;-0.580;2023-07-31T03:55:45;100485.72;;;18.97
81657;BMP280;71067;51.482;-0.580;2023-07-31T03:58:11;100491.06;;;19.02
81657;BMP280;71067;51.482;-0.580;2023-07-31T04:00:36;100482.38;;;19.02
81657;BMP280;71067;51.482;-0.580;2023-07-31T04:03:01;100489.47;;;19.01
81657;BMP280;71067;51.482;-0.580;2023-07-31T04:05:27;100482.97;;;19.04
81657;BMP280;71067;51.482;-0.580;2023-07-31T04:07:52;100492.22;;;19.06
81657;BMP280;71067;51.482;-0.580;2023-07-31T04:10:17;100492.81;;;19.08
81657;BMP280;71067;51.482;-0.580;2023-07-31T04:12:42;100494.41;;;19.09
81657;BMP280;71067;51.482;-0.580;2023-07-31T04:15:08;100484.94;;;19.08
81657;BMP280;71067;51.482;-0.580;2023-07-31T04:17:34;100486.06;;;19.12
81657;BMP280;71067;51.482;-0.580;2023-07-31T04:19:59;100477.38;;;19.12
81657;BMP280;71067;51.482;-0.580;2023-07-31T04:22:24;100471.31;;;19.11
81657;BMP280;71067;51.482;-0.580;2023-07-31T04:24:50;100471.31;;;19.11
81657;BMP280;71067;51.482;-0.580;2023-07-31T04:27:15;100468.69;;;19.11
81657;BMP280;71067;51.482;-0.580;2023-07-31T04:29:40;100470.78;;;19.09
81657;BMP280;71067;51.482;-0.580;2023-07-31T04:32:07;100477.97;;;19.14
81657;BMP280;71067;51.482;-0.580;2023-07-31T04:34:33;100470.91;;;19.14
81657;BMP280;71067;51.482;-0.580;2023-07-31T04:36:58;100465.88;;;19.13
81657;BMP280;71067;51.482;-0.580;2023-07-31T04:39:24;100458.47;;;19.10
81657;BMP280;71067;51.482;-0.580;2023-07-31T04:41:49;100470.91;;;19.14
81657;BMP280;71067;51.482;-0.580;2023-07-31T04:44:14;100470.66;;;19.16
81657;BMP280;71067;51.482;-0.580;2023-07-31T04:46:39;100473.88;;;19.18
81657;BMP280;71067;51.482;-0.580;2023-07-31T04:49:05;100468.63;;;19.18
81657;BMP280;71067;51.482;-0.580;2023-07-31T04:51:30;100480.25;;;19.22
81657;BMP280;71067;51.482;-0.580;2023-07-31T04:53:56;100471.25;;;19.18
81657;BMP280;71067;51.482;-0.580;2023-07-31T04:56:22;100473.19;;;19.22
81657;BMP280;71067;51.482;-0.580;2023-07-31T04:58:47;100477.06;;;19.20
81657;BMP280;71067;51.482;-0.580;2023-07-31T05:01:12;100471.38;;;19.23
81657;BMP280;71067;51.482;-0.580;2023-07-31T05:03:38;100460.97;;;19.16
81657;BMP280;71067;51.482;-0.580;2023-07-31T05:06:03;100477.75;;;19.27
81657;BMP280;71067;51.482;-0.580;2023-07-31T05:08:28;100485.31;;;19.23
81657;BMP280;71067;51.482;-0.580;2023-07-31T05:10:54;100479.00;;;19.24
81657;BMP280;71067;51.482;-0.580;2023-07-31T05:13:19;100481.88;;;19.23
81657;BMP280;71067;51.482;-0.580;2023-07-31T05:15:45;100478.66;;;19.21
81657;BMP280;71067;51.482;-0.580;2023-07-31T05:18:10;100479.00;;;19.24
81657;BMP280;71067;51.482;-0.580;2023-07-31T05:20:35;100468.63;;;19.18
81657;BMP280;71067;51.482;-0.580;2023-07-31T05:23:01;100475.13;;;19.27
81657;BMP280;71067;51.482;-0.580;2023-07-31T05:25:26;100477.56;;;19.28
81657;BMP280;71067;51.482;-0.580;2023-07-31T05:27:51;100476.53;;;19.29
81657;BMP280;71067;51.482;-0.580;2023-07-31T05:30:17;100477.09;;;19.31
81657;BMP280;71067;51.482;-0.580;2023-07-31T05:32:42;100472.97;;;19.35
81657;BMP280;71067;51.482;-0.580;2023-07-31T05:35:07;100459.53;;;19.32
81657;BMP280;71067;51.482;-0.580;2023-07-31T05:37:34;100475.41;;;19.37
81657;BMP280;71067;51.482;-0.580;2023-07-31T05:39:59;100467.06;;;19.28
81657;BMP280;71067;51.482;-0.580;2023-07-31T05:42:24;100472.50;;;19.38
81657;BMP280;71067;51.482;-0.580;2023-07-31T05:44:50;100469.47;;;19.41
81657;BMP280;71067;51.482;-0.580;2023-07-31T05:47:15;100467.38;;;19.43
81657;BMP280;71067;51.482;-0.580;2023-07-31T05:49:40;100475.84;;;19.45
81657;BMP280;71067;51.482;-0.580;2023-07-31T05:52:06;100468.19;;;19.44
81657;BMP280;71067;51.482;-0.580;2023-07-31T05:54:32;100470.25;;;19.42
81657;BMP280;71067;51.482;-0.580;2023-07-31T05:56:58;100471.63;;;19.44
81657;BMP280;71067;51.482;-0.580;2023-07-31T05:59:23;100471.63;;;19.44
81657;BMP280;71067;51.482;-0.580;2023-07-31T06:01:48;100477.44;;;19.46
81657;BMP280;71067;51.482;-0.580;2023-07-31T06:04:14;100474.38;;;19.49
81657;BMP280;71067;51.482;-0.580;2023-07-31T06:06:39;100469.81;;;19.45
81657;BMP280;71067;51.482;-0.580;2023-07-31T06:09:04;100475.38;;;19.48
81657;BMP280;71067;51.482;-0.580;2023-07-31T06:11:30;100484.63;;;19.51
81657;BMP280;71067;51.482;-0.580;2023-07-31T06:13:55;100479.16;;;19.52
81657;BMP280;71067;51.482;-0.580;2023-07-31T06:16:21;100485.00;;;19.54
81657;BMP280;71067;51.482;-0.580;2023-07-31T06:18:47;100478.69;;;19.55
81657;BMP280;71067;51.482;-0.580;2023-07-31T06:21:12;100491.38;;;19.58
81657;BMP280;71067;51.482;-0.580;2023-07-31T06:23:38;100482.47;;;19.59
81657;BMP280;71067;51.482;-0.580;2023-07-31T06:26:03;100479.81;;;19.59
81657;BMP280;71067;51.482;-0.580;2023-07-31T06:28:30;100483.25;;;19.60
81657;BMP280;71067;51.482;-0.580;2023-07-31T06:30:55;100477.19;;;19.59
81657;BMP280;71067;51.482;-0.580;2023-07-31T06:33:21;100484.38;;;19.64
81657;BMP280;71067;51.482;-0.580;2023-07-31T06:35:46;100494.91;;;19.64
81657;BMP280;71067;51.482;-0.580;2023-07-31T06:38:12;100479.41;;;19.62
81657;BMP280;71067;51.482;-0.580;2023-07-31T06:40:37;100482.84;;;19.63
81657;BMP280;71067;51.482;-0.580;2023-07-31T06:43:03;100468.63;;;19.64
81657;BMP280;71067;51.482;-0.580;2023-07-31T06:45:35;100481.75;;;19.64
81657;BMP280;71067;51.482;-0.580;2023-07-31T06:48:01;100477.56;;;19.63
81657;BMP280;71067;51.482;-0.580;2023-07-31T06:50:28;100473.69;;;19.65
81657;BMP280;71067;51.482;-0.580;2023-07-31T06:52:53;100470.59;;;19.68
81657;BMP280;71067;51.482;-0.580;2023-07-31T06:55:20;100457.81;;;19.60
81657;BMP280;71067;51.482;-0.580;2023-07-31T06:57:50;100463.72;;;19.67
81657;BMP280;71067;51.482;-0.580;2023-07-31T07:00:17;100473.88;;;19.64
81657;BMP280;71067;51.482;-0.580;2023-07-31T07:02:43;100469.91;;;19.61
81657;BMP280;71067;51.482;-0.580;2023-07-31T07:05:08;100470.94;;;19.60
81657;BMP280;71067;51.482;-0.580;2023-07-31T07:07:34;100454.50;;;19.53
81657;BMP280;71067;51.482;-0.580;2023-07-31T07:10:00;100452.91;;;19.52
81657;BMP280;71067;51.482;-0.580;2023-07-31T07:12:28;100456.19;;;19.48
81657;BMP280;71067;51.482;-0.580;2023-07-31T07:14:53;100453.44;;;19.43
81657;BMP280;71067;51.482;-0.580;2023-07-31T07:17:19;100455.16;;;19.37
81657;BMP280;71067;51.482;-0.580;2023-07-31T07:19:44;100455.84;;;19.33
81657;BMP280;71067;51.482;-0.580;2023-07-31T07:22:11;100452.44;;;19.32
81657;BMP280;71067;51.482;-0.580;2023-07-31T07:24:36;100455.28;;;19.31
81657;BMP280;71067;51.482;-0.580;2023-07-31T07:27:01;100444.56;;;19.32
81657;BMP280;71067;51.482;-0.580;2023-07-31T07:29:26;100448.22;;;19.31
81657;BMP280;71067;51.482;-0.580;2023-07-31T07:31:52;100435.53;;;19.28
81657;BMP280;71067;51.482;-0.580;2023-07-31T07:34:17;100444.09;;;19.35
81657;BMP280;71067;51.482;-0.580;2023-07-31T07:36:42;100448.69;;;19.28
81657;BMP280;71067;51.482;-0.580;2023-07-31T07:39:10;100451.38;;;19.33
81657;BMP280;71067;51.482;-0.580;2023-07-31T07:41:36;100450.84;;;19.31
81657;BMP280;71067;51.482;-0.580;2023-07-31T07:44:01;100440.34;;;19.31
81657;BMP280;71067;51.482;-0.580;2023-07-31T07:46:26;100441.34;;;19.30
81657;BMP280;71067;51.482;-0.580;2023-07-31T07:48:52;100444.56;;;19.32
81657;BMP280;71067;51.482;-0.580;2023-07-31T07:51:17;100422.97;;;19.30
81657;BMP280;71067;51.482;-0.580;2023-07-31T07:53:42;100432.47;;;19.31
81657;BMP280;71067;51.482;-0.580;2023-07-31T07:56:07;100438.38;;;19.38
81657;BMP280;71067;51.482;-0.580;2023-07-31T07:58:33;100432.59;;;19.36
81657;BMP280;71067;51.482;-0.580;2023-07-31T08:00:58;100425.50;;;19.37
81657;BMP280;71067;51.482;-0.580;2023-07-31T08:03:23;100428.56;;;19.34
81657;BMP280;71067;51.482;-0.580;2023-07-31T08:05:49;100430.97;;;19.35
81657;BMP280;71067;51.482;-0.580;2023-07-31T08:08:15;100425.25;;;19.38
81657;BMP280;71067;51.482;-0.580;2023-07-31T08:10:42;100405.75;;;19.34
81657;BMP280;71067;51.482;-0.580;2023-07-31T08:13:07;100404.81;;;19.40
81657;BMP280;71067;51.482;-0.580;2023-07-31T08:15:32;100389.63;;;19.42
81657;BMP280;71067;51.482;-0.580;2023-07-31T08:17:58;100390.75;;;19.46
81657;BMP280;71067;51.482;-0.580;2023-07-31T08:20:23;100399.00;;;19.50
81657;BMP280;71067;51.482;-0.580;2023-07-31T08:22:48;100401.72;;;19.55
81657;BMP280;71067;51.482;-0.580;2023-07-31T08:25:14;100407.78;;;19.55
81657;BMP280;71067;51.482;-0.580;2023-07-31T08:27:43;100412.56;;;19.58
81657;BMP280;71067;51.482;-0.580;2023-07-31T08:30:08;100418.28;;;19.55
81657;BMP280;71067;51.482;-0.580;2023-07-31T08:32:34;100405.38;;;19.54
81657;BMP280;71067;51.482;-0.580;2023-07-31T08:34:59;100397.38;;;19.60
81657;BMP280;71067;51.482;-0.580;2023-07-31T08:37:25;100388.56;;;19.66
81657;BMP280;71067;51.482;-0.580;2023-07-31T08:39:50;100381.72;;;19.65
81657;BMP280;71067;51.482;-0.580;2023-07-31T08:42:16;100376.00;;;19.68
81657;BMP280;71067;51.482;-0.580;2023-07-31T08:44:43;100383.50;;;19.76
81657;BMP280;71067;51.482;-0.580;2023-07-31T08:47:09;100384.56;;;19.75
81657;BMP280;71067;51.482;-0.580;2023-07-31T08:49:35;100383.50;;;19.76
81657;BMP280;71067;51.482;-0.580;2023-07-31T08:52:02;100380.03;;;19.71
81657;BMP280;71067;51.482;-0.580;2023-07-31T08:54:27;100387.19;;;19.75
81657;BMP280;71067;51.482;-0.580;2023-07-31T08:56:56;100387.19;;;19.75
81657;BMP280;71067;51.482;-0.580;2023-07-31T08:59:23;100379.84;;;19.77
81657;BMP280;71067;51.482;-0.580;2023-07-31T09:01:50;100380.13;;;19.76
81657;BMP280;71067;51.482;-0.580;2023-07-31T09:04:19;100382.59;;;19.82
81657;BMP280;71067;51.482;-0.580;2023-07-31T09:06:46;100390.56;;;19.87
81657;BMP280;71067;51.482;-0.580;2023-07-31T09:09:13;100396.97;;;19.91
81657;BMP280;71067;51.482;-0.580;2023-07-31T09:11:39;100392.84;;;19.95
81657;BMP280;71067;51.482;-0.580;2023-07-31T09:14:05;100391.13;;;20.01
81657;BMP280;71067;51.482;-0.580;2023-07-31T09:16:34;100369.81;;;20.02
81657;BMP280;71067;51.482;-0.580;2023-07-31T09:18:59;100361.16;;;20.02
81657;BMP280;71067;51.482;-0.580;2023-07-31T09:21:27;100356.25;;;20.06
81657;BMP280;71067;51.482;-0.580;2023-07-31T09:23:53;100361.50;;;20.06
81657;BMP280;71067;51.482;-0.580;2023-07-31T09:28:56;100352.13;;;19.98
81657;BMP280;71067;51.482;-0.580;2023-07-31T09:31:32;100368.25;;;20.02
81657;BMP280;71067;51.482;-0.580;2023-07-31T09:33:58;100343.34;;;20.04
81657;BMP280;71067;51.482;-0.580;2023-07-31T09:36:23;100352.56;;;20.07
81657;BMP280;71067;51.482;-0.580;2023-07-31T09:38:48;100342.16;;;20.12
81657;BMP280;71067;51.482;-0.580;2023-07-31T09:41:14;100349.56;;;20.15
81657;BMP280;71067;51.482;-0.580;2023-07-31T09:43:39;100347.34;;;20.23
81657;BMP280;71067;51.482;-0.580;2023-07-31T09:46:13;100357.41;;;20.26
81657;BMP280;71067;51.482;-0.580;2023-07-31T09:48:39;100383.22;;;20.29
81657;BMP280;71067;51.482;-0.580;2023-07-31T09:51:04;100365.84;;;20.28
81657;BMP280;71067;51.482;-0.580;2023-07-31T09:53:30;100376.69;;;20.32
81657;BMP280;71067;51.482;-0.580;2023-07-31T09:55:58;100351.34;;;20.26
81657;BMP280;71067;51.482;-0.580;2023-07-31T09:58:24;100347.22;;;20.30
81657;BMP280;71067;51.482;-0.580;2023-07-31T10:00:51;100334.59;;;20.32
81657;BMP280;71067;51.482;-0.580;2023-07-31T10:03:17;100326.00;;;20.36
81657;BMP280;71067;51.482;-0.580;2023-07-31T10:05:46;100342.81;;;20.35
81657;BMP280;71067;51.482;-0.580;2023-07-31T10:08:15;100366.25;;;20.37
81657;BMP280;71067;51.482;-0.580;2023-07-31T10:10:42;100374.72;;;20.39
81657;BMP280;71067;51.482;-0.580;2023-07-31T10:13:08;100371.03;;;20.40
81657;BMP280;71067;51.482;-0.580;2023-07-31T10:15:34;100375.03;;;20.42
81657;BMP280;71067;51.482;-0.580;2023-07-31T10:18:01;100350.56;;;20.42
81657;BMP280;71067;51.482;-0.580;2023-07-31T10:20:27;100344.81;;;20.45
81657;BMP280;71067;51.482;-0.580;2023-07-31T10:22:54;100353.59;;;20.50
81657;BMP280;71067;51.482;-0.580;2023-07-31T10:25:21;100360.78;;;20.55
81657;BMP280;71067;51.482;-0.580;2023-07-31T10:27:47;100366.38;;;20.58
81657;BMP280;71067;51.482;-0.580;2023-07-31T10:30:16;100371.63;;;20.58
81657;BMP280;71067;51.482;-0.580;2023-07-31T10:32:43;100378.22;;;20.61
81657;BMP280;71067;51.482;-0.580;2023-07-31T10:35:09;100388.34;;;20.69
81657;BMP280;71067;51.482;-0.580;2023-07-31T10:37:42;100388.84;;;20.66
81657;BMP280;71067;51.482;-0.580;2023-07-31T10:40:12;100391.56;;;20.71
81657;BMP280;71067;51.482;-0.580;2023-07-31T10:42:49;100386.13;;;20.61
81657;BMP280;71067;51.482;-0.580;2023-07-31T10:48:01;100362.28;;;20.51
81657;BMP280;71067;51.482;-0.580;2023-07-31T10:50:27;100371.78;;;20.52
81657;BMP280;71067;51.482;-0.580;2023-07-31T10:52:56;100379.59;;;20.47
81657;BMP280;71067;51.482;-0.580;2023-07-31T10:55:52;100361.06;;;20.42
81657;BMP280;71067;51.482;-0.580;2023-07-31T10:58:19;100377.81;;;20.36
81657;BMP280;71067;51.482;-0.580;2023-07-31T11:00:45;100357.88;;;20.23
81657;BMP280;71067;51.482;-0.580;2023-07-31T11:03:13;100367.41;;;20.13
81657;BMP280;71067;51.482;-0.580;2023-07-31T11:08:24;100373.25;;;20.03
81657;BMP280;71067;51.482;-0.580;2023-07-31T11:11:13;100368.38;;;19.95
81657;BMP280;71067;51.482;-0.580;2023-07-31T11:13:50;100379.59;;;19.90
81657;BMP280;71067;51.482;-0.580;2023-07-31T11:16:19;100383.94;;;19.97
81657;BMP280;71067;51.482;-0.580;2023-07-31T11:18:46;100372.25;;;20.04
81657;BMP280;71067;51.482;-0.580;2023-07-31T11:21:17;100363.88;;;20.07
81657;BMP280;71067;51.482;-0.580;2023-07-31T11:23:56;100361.56;;;20.11
81657;BMP280;71067;51.482;-0.580;2023-07-31T11:26:23;100355.75;;;20.09
81657;BMP280;71067;51.482;-0.580;2023-07-31T11:28:50;100354.19;;;20.08
81657;BMP280;71067;51.482;-0.580;2023-07-31T11:31:16;100349.13;;;20.06
81657;BMP280;71067;51.482;-0.580;2023-07-31T11:33:42;100339.47;;;19.95
81657;BMP280;71067;51.482;-0.580;2023-07-31T11:36:17;100345.88;;;19.99
81657;BMP280;71067;51.482;-0.580;2023-07-31T11:38:42;100356.53;;;19.92
81657;BMP280;71067;51.482;-0.580;2023-07-31T11:41:08;100357.09;;;19.94
81657;BMP280;71067;51.482;-0.580;2023-07-31T11:43:33;100366.78;;;19.94
81657;BMP280;71067;51.482;-0.580;2023-07-31T11:46:01;100362.47;;;19.88
81657;BMP280;71067;51.482;-0.580;2023-07-31T11:48:33;100365.91;;;19.88
81657;BMP280;71067;51.482;-0.580;2023-07-31T11:51:04;100371.25;;;19.93
81657;BMP280;71067;51.482;-0.580;2023-07-31T11:53:38;100368.47;;;20.00
81657;BMP280;71067;51.482;-0.580;2023-07-31T11:56:04;100373.72;;;20.00
81657;BMP280;71067;51.482;-0.580;2023-07-31T11:58:33;100382.13;;;19.97
81657;BMP280;71067;51.482;-0.580;2023-07-31T12:00:59;100366.56;;;19.95
81657;BMP280;71067;51.482;-0.580;2023-07-31T12:03:26;100355.22;;;19.95
81657;BMP280;71067;51.482;-0.580;2023-07-31T12:05:53;100346.00;;;19.92
81657;BMP280;71067;51.482;-0.580;2023-07-31T12:08:20;100362.44;;;20.00
81657;BMP280;71067;51.482;-0.580;2023-07-31T12:10:45;100349.19;;;19.94
81657;BMP280;71067;51.482;-0.580;2023-07-31T12:13:21;100347.25;;;19.90
81657;BMP280;71067;51.482;-0.580;2023-07-31T12:15:48;100355.84;;;19.85
81657;BMP280;71067;51.482;-0.580;2023-07-31T12:18:15;100361.66;;;19.87
81657;BMP280;71067;51.482;-0.580;2023-07-31T12:23:07;100356.22;;;19.77
81657;BMP280;71067;51.482;-0.580;2023-07-31T12:25:37;100350.63;;;19.74
81657;BMP280;71067;51.482;-0.580;2023-07-31T12:28:06;100343.53;;;19.74
81657;BMP280;71067;51.482;-0.580;2023-07-31T12:30:36;100338.75;;;19.71
81657;BMP280;71067;51.482;-0.580;2023-07-31T12:33:14;100344.00;;;19.71
81657;BMP280;71067;51.482;-0.580;2023-07-31T12:35:43;100336.59;;;19.68
81657;BMP280;71067;51.482;-0.580;2023-07-31T12:38:08;100320.50;;;19.65
81657;BMP280;71067;51.482;-0.580;2023-07-31T12:40:37;100328.59;;;19.63
81657;BMP280;71067;51.482;-0.580;2023-07-31T12:43:03;100326.47;;;19.60
81657;BMP280;71067;51.482;-0.580;2023-07-31T12:45:31;100314.00;;;19.56
81657;BMP280;71067;51.482;-0.580;2023-07-31T12:47:57;100302.25;;;19.58
81657;BMP280;71067;51.482;-0.580;2023-07-31T12:50:23;100290.69;;;19.59
81657;BMP280;71067;51.482;-0.580;2023-07-31T12:52:49;100297.47;;;19.55
81657;BMP280;71067;51.482;-0.580;2023-07-31T12:55:14;100305.59;;;19.54
81657;BMP280;71067;51.482;-0.580;2023-07-31T12:57:40;100303.66;;;19.49
81657;BMP280;71067;51.482;-0.580;2023-07-31T13:00:07;100308.34;;;19.47
81657;BMP280;71067;51.482;-0.580;2023-07-31T13:02:32;100316.34;;;19.41
81657;BMP280;71067;51.482;-0.580;2023-07-31T13:04:58;100317.03;;;19.36
81657;BMP280;71067;51.482;-0.580;2023-07-31T13:07:23;100312.50;;;19.32
81657;BMP280;71067;51.482;-0.580;2023-07-31T13:09:48;100312.81;;;19.35
81657;BMP280;71067;51.482;-0.580;2023-07-31T13:12:14;100295.13;;;19.31
81657;BMP280;71067;51.482;-0.580;2023-07-31T13:14:39;100302.78;;;19.32
81657;BMP280;71067;51.482;-0.580;2023-07-31T13:17:04;100302.78;;;19.32
81657;BMP280;71067;51.482;-0.580;2023-07-31T13:19:30;100306.78;;;19.23
81657;BMP280;71067;51.482;-0.580;2023-07-31T13:21:55;100304.38;;;19.22
81657;BMP280;71067;51.482;-0.580;2023-07-31T13:24:20;100311.81;;;19.13
81657;BMP280;71067;51.482;-0.580;2023-07-31T13:26:46;100312.72;;;19.07
81657;BMP280;71067;51.482;-0.580;2023-07-31T13:29:11;100313.19;;;19.04
81657;BMP280;71067;51.482;-0.580;2023-07-31T13:31:36;100316.16;;;18.96
81657;BMP280;71067;51.482;-0.580;2023-07-31T13:34:02;100315.44;;;18.89
81657;BMP280;71067;51.482;-0.580;2023-07-31T13:36:28;100330.03;;;18.85
81657;BMP280;71067;51.482;-0.580;2023-07-31T13:38:53;100324.78;;;18.85
81657;BMP280;71067;51.482;-0.580;2023-07-31T13:41:18;100310.91;;;18.85
81657;BMP280;71067;51.482;-0.580;2023-07-31T13:43:43;100335.91;;;18.87
81657;BMP280;71067;51.482;-0.580;2023-07-31T13:46:09;100344.53;;;18.88
81657;BMP280;71067;51.482;-0.580;2023-07-31T13:48:35;100313.28;;;18.86
81657;BMP280;71067;51.482;-0.580;2023-07-31T13:51:01;100257.63;;;18.84
81657;BMP280;71067;51.482;-0.580;2023-07-31T13:53:26;100302.56;;;18.76
81657;BMP280;71067;51.482;-0.580;2023-07-31T13:55:51;100285.13;;;18.70